Time;durP1;ratioP1;P1;durP2;ratioP2;P2;SDS_P1;SDS_P2;PMS_P1;PMS_P2;Temp;Humidity;BMP_temperature;BMP_pressure;BME280_temperature;BME280_humidity;BME280_pressure;Samples;Min_cycle;Max_cycle;Signal;HPM_P1;HPM_P2
2023/07/18 00:00:39;;;;;;;11.57;2.78;;;;;;;;;;4991339;28;20129;-74
2023/07/18 00:03:05;;;;;;;12.73;3.45;;;;;;;;;;4996115;28;20165;-74
2023/07/18 00:05:33;;;;;;;7.05;2.97;;;;;;;;;;4988227;28;20549;-74
2023/07/18 00:07:59;;;;;;;8.93;2.40;;;;;;;;;;4991138;28;20057;-74
2023/07/18 00:10:28;;;;;;;9.73;2.63;;;;;;;;;;4986464;28;20046;-73
2023/07/18 00:12:54;;;;;;;12.35;2.90;;;;;;;;;;4987649;28;20108;-74
2023/07/18 00:15:20;;;;;;;10.52;3.85;;;;;;;;;;4986900;28;20297;-74
2023/07/18 00:17:46;;;;;;;14.32;3.08;;;;;;;;;;4995832;28;20038;-74
2023/07/18 00:20:14;;;;;;;11.82;3.40;;;;;;;;;;4988910;28;20395;-74
2023/07/18 00:22:43;;;;;;;11.23;3.38;;;;;;;;;;4987169;28;20031;-74
2023/07/18 00:25:10;;;;;;;16.27;4.40;;;;;;;;;;4984809;28;20030;-74
2023/07/18 00:27:40;;;;;;;13.52;3.80;;;;;;;;;;4989940;28;20034;-74
2023/07/18 00:30:07;;;;;;;14.20;3.50;;;;;;;;;;4991640;28;20122;-74
2023/07/18 00:32:33;;;;;;;19.15;4.10;;;;;;;;;;4994002;28;20023;-73
2023/07/18 00:34:59;;;;;;;10.57;3.95;;;;;;;;;;4990555;28;20411;-74
2023/07/18 00:37:26;;;;;;;12.90;3.47;;;;;;;;;;4991708;28;20495;-74
2023/07/18 00:39:53;;;;;;;11.18;3.20;;;;;;;;;;4989864;28;20030;-74
2023/07/18 00:42:19;;;;;;;11.80;3.22;;;;;;;;;;4985181;28;20031;-74
2023/07/18 00:44:46;;;;;;;9.65;3.60;;;;;;;;;;4978196;28;20037;-74
2023/07/18 00:47:12;;;;;;;10.23;3.47;;;;;;;;;;4988833;28;20491;-74
2023/07/18 00:49:38;;;;;;;11.93;3.72;;;;;;;;;;4983285;28;20503;-74
2023/07/18 00:52:06;;;;;;;12.38;3.33;;;;;;;;;;4989902;28;20750;-74
2023/07/18 00:54:32;;;;;;;16.48;3.97;;;;;;;;;;4982611;28;20058;-73
2023/07/18 00:56:58;;;;;;;14.27;4.20;;;;;;;;;;4989548;28;20061;-74
2023/07/18 00:59:24;;;;;;;15.77;3.97;;;;;;;;;;4989242;28;20129;-74
2023/07/18 01:01:50;;;;;;;6.43;3.03;;;;;;;;;;4988970;28;20045;-74
2023/07/18 01:04:18;;;;;;;13.00;3.95;;;;;;;;;;4990775;28;20033;-75
2023/07/18 01:06:44;;;;;;;10.73;3.40;;;;;;;;;;4986050;28;20033;-74
2023/07/18 01:09:10;;;;;;;13.13;3.28;;;;;;;;;;4981444;28;20093;-75
2023/07/18 01:11:36;;;;;;;12.43;4.00;;;;;;;;;;4988696;28;20085;-74
2023/07/18 01:14:03;;;;;;;11.30;3.75;;;;;;;;;;4986054;28;20058;-73
2023/07/18 01:16:29;;;;;;;19.10;4.38;;;;;;;;;;4981150;28;20049;-74
2023/07/18 01:18:55;;;;;;;12.82;3.72;;;;;;;;;;4983194;28;20065;-74
2023/07/18 01:21:22;;;;;;;14.70;3.97;;;;;;;;;;4986996;28;20050;-74
2023/07/18 01:23:49;;;;;;;14.02;4.78;;;;;;;;;;4986402;28;20029;-74
2023/07/18 01:26:15;;;;;;;14.75;3.70;;;;;;;;;;4986079;28;20305;-73
2023/07/18 01:28:42;;;;;;;18.80;4.10;;;;;;;;;;4988385;28;20046;-73
2023/07/18 01:31:08;;;;;;;13.10;4.07;;;;;;;;;;4987569;28;20404;-73
2023/07/18 01:33:34;;;;;;;15.57;4.57;;;;;;;;;;4988134;28;20034;-73
2023/07/18 01:36:01;;;;;;;10.85;4.07;;;;;;;;;;4988429;28;20405;-73
2023/07/18 01:38:29;;;;;;;11.50;4.15;;;;;;;;;;4986914;28;20110;-74
2023/07/18 01:40:59;;;;;;;22.90;5.00;;;;;;;;;;4992465;28;20505;-74
2023/07/18 01:43:25;;;;;;;14.90;4.60;;;;;;;;;;4981791;28;20117;-74
2023/07/18 01:45:51;;;;;;;18.20;4.28;;;;;;;;;;4985960;28;20118;-73
2023/07/18 01:48:19;;;;;;;14.35;4.13;;;;;;;;;;4981661;28;20026;-73
2023/07/18 01:50:45;;;;;;;13.63;4.68;;;;;;;;;;4985803;28;20065;-74
2023/07/18 01:53:11;;;;;;;13.50;4.20;;;;;;;;;;4989278;28;20031;-74
2023/07/18 01:55:38;;;;;;;13.88;4.35;;;;;;;;;;4987769;28;20038;-74
2023/07/18 01:58:05;;;;;;;15.85;4.53;;;;;;;;;;4987730;28;20035;-74
2023/07/18 02:00:32;;;;;;;14.05;5.40;;;;;;;;;;4992258;28;20034;-74
2023/07/18 02:02:58;;;;;;;13.20;4.10;;;;;;;;;;4988009;28;20408;-73
2023/07/18 02:05:27;;;;;;;14.00;4.55;;;;;;;;;;4991356;28;20061;-74
2023/07/18 02:07:53;;;;;;;13.20;4.93;;;;;;;;;;4996120;28;20027;-74
2023/07/18 02:10:20;;;;;;;18.92;5.18;;;;;;;;;;4985804;28;20049;-74
2023/07/18 02:12:47;;;;;;;10.90;4.18;;;;;;;;;;4995659;28;20031;-73
2023/07/18 02:15:13;;;;;;;16.02;4.60;;;;;;;;;;4986067;28;20109;-74
2023/07/18 02:17:39;;;;;;;15.02;4.93;;;;;;;;;;4993935;28;20066;-74
2023/07/18 02:20:05;;;;;;;12.07;4.45;;;;;;;;;;4991484;28;20081;-73
2023/07/18 02:22:33;;;;;;;13.20;4.38;;;;;;;;;;4993107;28;20034;-74
2023/07/18 02:24:59;;;;;;;14.07;4.00;;;;;;;;;;4992953;28;20034;-74
2023/07/18 02:27:25;;;;;;;12.23;4.65;;;;;;;;;;4986442;28;20033;-74
2023/07/18 02:29:51;;;;;;;17.05;4.70;;;;;;;;;;4996523;28;20057;-74
2023/07/18 02:32:17;;;;;;;11.98;4.22;;;;;;;;;;4993086;28;20101;-74
2023/07/18 02:34:44;;;;;;;13.27;3.70;;;;;;;;;;4994283;28;20047;-73
2023/07/18 02:37:10;;;;;;;15.50;5.05;;;;;;;;;;4987476;28;20038;-74
2023/07/18 02:39:38;;;;;;;15.05;4.38;;;;;;;;;;4992611;28;20109;-74
2023/07/18 02:42:05;;;;;;;17.40;5.05;;;;;;;;;;4989324;28;20026;-74
2023/07/18 02:44:31;;;;;;;11.68;4.22;;;;;;;;;;4986774;28;20042;-73
2023/07/18 02:46:57;;;;;;;10.90;3.85;;;;;;;;;;4990060;28;20077;-73
2023/07/18 02:49:23;;;;;;;12.38;4.05;;;;;;;;;;4990105;28;20465;-73
2023/07/18 02:51:49;;;;;;;16.02;4.78;;;;;;;;;;4989377;28;20069;-73
2023/07/18 02:54:15;;;;;;;14.68;4.70;;;;;;;;;;4985434;28;20066;-73
2023/07/18 02:56:41;;;;;;;12.68;4.95;;;;;;;;;;4985588;28;20049;-73
2023/07/18 02:59:07;;;;;;;12.75;4.15;;;;;;;;;;4992335;28;20043;-73
2023/07/18 03:01:34;;;;;;;12.20;5.25;;;;;;;;;;4984936;28;20033;-73
2023/07/18 03:04:00;;;;;;;19.70;4.53;;;;;;;;;;4991308;28;20154;-74
2023/07/18 03:06:27;;;;;;;15.30;4.57;;;;;;;;;;4988192;28;20108;-74
2023/07/18 03:08:54;;;;;;;13.68;5.05;;;;;;;;;;4986140;28;20080;-72
2023/07/18 03:11:20;;;;;;;19.75;4.60;;;;;;;;;;4983290;28;20053;-72
2023/07/18 03:13:46;;;;;;;15.70;4.32;;;;;;;;;;4980412;28;20058;-74
2023/07/18 03:16:12;;;;;;;10.85;3.88;;;;;;;;;;4976560;28;20035;-73
2023/07/18 03:18:38;;;;;;;18.90;4.90;;;;;;;;;;4976653;28;20397;-73
2023/07/18 03:21:04;;;;;;;110.82;72.45;;;;;;;;;;4976163;28;20050;-75
2023/07/18 03:23:30;;;;;;;15.35;6.45;;;;;;;;;;4981479;28;20045;-77
2023/07/18 03:25:56;;;;;;;23.13;6.32;;;;;;;;;;4978498;28;20530;-77
2023/07/18 03:28:22;;;;;;;15.75;6.32;;;;;;;;;;4981993;28;20042;-74
2023/07/18 03:30:48;;;;;;;13.90;5.07;;;;;;;;;;4985010;28;20449;-74
2023/07/18 03:33:15;;;;;;;15.07;5.20;;;;;;;;;;4980328;28;20035;-75
2023/07/18 03:35:41;;;;;;;17.17;4.97;;;;;;;;;;4974300;28;20054;-74
2023/07/18 03:38:07;;;;;;;14.93;5.20;;;;;;;;;;4978324;28;20097;-75
2023/07/18 03:40:33;;;;;;;16.35;5.07;;;;;;;;;;4975850;28;20054;-74
2023/07/18 03:43:00;;;;;;;21.13;4.93;;;;;;;;;;4973565;28;20053;-75
2023/07/18 03:45:26;;;;;;;14.63;4.65;;;;;;;;;;4970855;28;20069;-74
2023/07/18 03:47:52;;;;;;;12.45;4.82;;;;;;;;;;4971349;28;20058;-74
2023/07/18 03:50:18;;;;;;;12.68;5.20;;;;;;;;;;4972068;28;20046;-77
2023/07/18 03:52:44;;;;;;;19.17;7.13;;;;;;;;;;4978030;28;20100;-85
2023/07/18 03:55:11;;;;;;;163.35;100.07;;;;;;;;;;4976471;28;20504;-83
2023/07/18 03:57:37;;;;;;;29.35;8.90;;;;;;;;;;4976993;28;20086;-84
2023/07/18 04:00:13;;;;;;;18.73;4.65;;;;;;;;;;4975268;28;20403;-76
2023/07/18 04:02:40;;;;;;;14.38;4.30;;;;;;;;;;4982461;28;20030;-77
2023/07/18 04:05:07;;;;;;;17.58;5.43;;;;;;;;;;4980640;28;20597;-76
2023/07/18 04:07:33;;;;;;;10.88;4.43;;;;;;;;;;4985955;28;20037;-75
2023/07/18 04:09:59;;;;;;;14.13;5.82;;;;;;;;;;4983954;28;20081;-76
2023/07/18 04:12:25;;;;;;;16.88;5.07;;;;;;;;;;4976245;28;20031;-76
2023/07/18 04:14:51;;;;;;;12.52;5.20;;;;;;;;;;4978000;28;20054;-78
2023/07/18 04:17:17;;;;;;;17.27;4.75;;;;;;;;;;4981846;28;20058;-78
2023/07/18 04:19:43;;;;;;;28.45;5.53;;;;;;;;;;4980730;28;20453;-78
2023/07/18 04:22:09;;;;;;;12.70;4.82;;;;;;;;;;4979498;28;20619;-75
2023/07/18 04:24:35;;;;;;;89.93;47.83;;;;;;;;;;4983871;28;20373;-82
2023/07/18 04:27:01;;;;;;;59.85;34.60;;;;;;;;;;4983573;28;20042;-81
2023/07/18 04:29:28;;;;;;;15.48;6.28;;;;;;;;;;4983558;28;20034;-73
2023/07/18 04:31:54;;;;;;;15.48;4.70;;;;;;;;;;4988006;28;20096;-74
2023/07/18 04:34:20;;;;;;;15.25;4.60;;;;;;;;;;4984723;28;20117;-74
2023/07/18 04:36:46;;;;;;;15.20;4.60;;;;;;;;;;4984811;28;20038;-74
2023/07/18 04:39:12;;;;;;;13.52;4.32;;;;;;;;;;4987624;28;20103;-73
2023/07/18 04:41:38;;;;;;;11.63;4.75;;;;;;;;;;4966739;28;22888;-74
2023/07/18 04:44:04;;;;;;;18.92;5.20;;;;;;;;;;4983860;28;20039;-74
2023/07/18 04:46:30;;;;;;;18.92;4.78;;;;;;;;;;4984890;28;20031;-75
2023/07/18 04:48:57;;;;;;;24.08;5.50;;;;;;;;;;4986571;28;20399;-75
2023/07/18 04:51:24;;;;;;;16.45;4.43;;;;;;;;;;4980369;28;20043;-75
2023/07/18 04:53:50;;;;;;;15.30;4.35;;;;;;;;;;4980395;28;20483;-75
2023/07/18 04:56:16;;;;;;;16.83;4.43;;;;;;;;;;4982928;28;20104;-75
2023/07/18 04:58:42;;;;;;;18.02;4.65;;;;;;;;;;4982511;28;20030;-75
2023/07/18 05:01:09;;;;;;;15.10;5.20;;;;;;;;;;4982945;28;20109;-75
2023/07/18 05:03:35;;;;;;;16.80;4.82;;;;;;;;;;4984124;28;20027;-75
2023/07/18 05:06:01;;;;;;;12.38;4.50;;;;;;;;;;4986632;28;20038;-75
2023/07/18 05:08:27;;;;;;;14.65;4.50;;;;;;;;;;4985854;28;20078;-75
2023/07/18 05:11:00;;;;;;;20.10;5.13;;;;;;;;;;4983071;28;20491;-76
2023/07/18 05:13:26;;;;;;;20.15;5.00;;;;;;;;;;4983457;28;20067;-76
2023/07/18 05:15:52;;;;;;;18.92;5.25;;;;;;;;;;4986419;28;20599;-75
2023/07/18 05:18:18;;;;;;;13.20;4.40;;;;;;;;;;4982220;28;20031;-75
2023/07/18 05:20:44;;;;;;;14.02;4.43;;;;;;;;;;4985220;28;20042;-75
2023/07/18 05:23:10;;;;;;;18.48;4.80;;;;;;;;;;4983152;28;20109;-75
2023/07/18 05:25:37;;;;;;;18.05;5.00;;;;;;;;;;4984551;28;20117;-75
2023/07/18 05:28:03;;;;;;;19.80;5.75;;;;;;;;;;4980517;28;20058;-75
2023/07/18 05:30:29;;;;;;;15.20;5.13;;;;;;;;;;4982591;28;20041;-75
2023/07/18 05:32:55;;;;;;;22.17;6.00;;;;;;;;;;4985714;28;20034;-75
2023/07/18 05:35:21;;;;;;;16.60;4.55;;;;;;;;;;4983490;28;20447;-75
2023/07/18 05:37:47;;;;;;;13.00;4.90;;;;;;;;;;4984267;28;20483;-75
2023/07/18 05:40:13;;;;;;;17.02;5.03;;;;;;;;;;4982709;28;20428;-75
2023/07/18 05:42:40;;;;;;;18.88;4.70;;;;;;;;;;4985679;28;20030;-75
2023/07/18 05:45:07;;;;;;;18.55;5.00;;;;;;;;;;4983863;28;20039;-75
2023/07/18 05:47:34;;;;;;;20.13;5.30;;;;;;;;;;4982117;28;20375;-75
2023/07/18 05:50:00;;;;;;;13.57;4.90;;;;;;;;;;4984704;28;21541;-75
2023/07/18 05:52:26;;;;;;;19.30;5.43;;;;;;;;;;4982266;28;20043;-75
2023/07/18 05:54:52;;;;;;;22.73;5.38;;;;;;;;;;5001990;28;20085;-75
2023/07/18 05:57:18;;;;;;;15.50;4.65;;;;;;;;;;4983126;28;20035;-75
2023/07/18 05:59:45;;;;;;;14.98;4.38;;;;;;;;;;4974596;28;20070;-75
2023/07/18 06:02:11;;;;;;;16.20;4.40;;;;;;;;;;4978009;28;20106;-76
2023/07/18 06:04:37;;;;;;;13.10;4.32;;;;;;;;;;4977460;28;20126;-75
2023/07/18 06:07:04;;;;;;;21.13;4.13;;;;;;;;;;4989305;28;20042;-76
2023/07/18 06:09:30;;;;;;;18.92;5.15;;;;;;;;;;4987211;28;20146;-76
2023/07/18 06:11:56;;;;;;;14.30;4.25;;;;;;;;;;4990264;28;20030;-75
2023/07/18 06:14:22;;;;;;;19.40;4.53;;;;;;;;;;4989435;28;20051;-75
2023/07/18 06:16:48;;;;;;;21.15;4.88;;;;;;;;;;4990090;28;20027;-75
2023/07/18 06:19:15;;;;;;;18.10;4.80;;;;;;;;;;4984603;28;20035;-74
2023/07/18 06:21:41;;;;;;;15.98;4.05;;;;;;;;;;4990683;28;20053;-75
2023/07/18 06:24:07;;;;;;;13.50;4.18;;;;;;;;;;4989685;28;20069;-75
2023/07/18 06:26:33;;;;;;;17.25;4.93;;;;;;;;;;4978337;28;20062;-75
2023/07/18 06:28:59;;;;;;;23.58;3.78;;;;;;;;;;4987962;28;20751;-75
2023/07/18 06:31:25;;;;;;;16.67;4.70;;;;;;;;;;4990029;28;20173;-75
2023/07/18 06:33:51;;;;;;;19.70;5.40;;;;;;;;;;4985060;28;20030;-74
2023/07/18 06:36:17;;;;;;;16.15;4.07;;;;;;;;;;4988622;28;20467;-75
2023/07/18 06:38:44;;;;;;;11.18;3.97;;;;;;;;;;4974635;28;20042;-75
2023/07/18 06:41:12;;;;;;;13.75;4.32;;;;;;;;;;4985728;28;20496;-75
2023/07/18 06:43:38;;;;;;;12.80;3.75;;;;;;;;;;4976190;28;20039;-75
2023/07/18 06:46:04;;;;;;;11.57;3.60;;;;;;;;;;4984694;28;20038;-74
2023/07/18 06:48:30;;;;;;;11.80;3.95;;;;;;;;;;4987067;28;20046;-75
2023/07/18 06:50:59;;;;;;;12.30;4.25;;;;;;;;;;4985570;28;20050;-76
2023/07/18 06:53:26;;;;;;;14.40;4.40;;;;;;;;;;4987468;28;20482;-75
2023/07/18 06:55:53;;;;;;;20.88;4.50;;;;;;;;;;4991652;28;20472;-74
2023/07/18 06:58:20;;;;;;;14.25;4.63;;;;;;;;;;4985406;28;20035;-74
2023/07/18 07:00:46;;;;;;;22.10;11.38;;;;;;;;;;4993359;28;20034;-77
2023/07/18 07:03:13;;;;;;;36.80;12.63;;;;;;;;;;4993370;28;20034;-78
2023/07/18 07:05:39;;;;;;;20.85;6.43;;;;;;;;;;4991821;28;20041;-79
2023/07/18 07:08:09;;;;;;;10.70;4.03;;;;;;;;;;4983247;28;20030;-80
2023/07/18 07:10:36;;;;;;;19.90;4.22;;;;;;;;;;4982599;28;20042;-78
2023/07/18 07:13:02;;;;;;;12.00;3.95;;;;;;;;;;4987087;28;20058;-77
2023/07/18 07:15:28;;;;;;;13.00;3.60;;;;;;;;;;4987857;28;20062;-78
2023/07/18 07:17:54;;;;;;;16.05;3.47;;;;;;;;;;4969570;28;20046;-78
2023/07/18 07:20:20;;;;;;;42.67;21.80;;;;;;;;;;4986503;28;20462;-77
2023/07/18 07:22:47;;;;;;;23.42;4.18;;;;;;;;;;4983985;28;20026;-76
2023/07/18 07:25:14;;;;;;;11.38;3.42;;;;;;;;;;4987617;28;20035;-78
2023/07/18 07:27:43;;;;;;;16.80;4.00;;;;;;;;;;4984192;28;20451;-75
2023/07/18 07:30:09;;;;;;;13.02;3.10;;;;;;;;;;4985722;28;20538;-76
2023/07/18 07:32:35;;;;;;;14.50;3.35;;;;;;;;;;4982384;28;20085;-75
2023/07/18 07:35:04;;;;;;;12.95;3.40;;;;;;;;;;4987656;28;20046;-75
2023/07/18 07:37:30;;;;;;;18.23;4.18;;;;;;;;;;4986718;28;20027;-76
2023/07/18 07:39:56;;;;;;;14.13;4.47;;;;;;;;;;4985501;28;20034;-77
2023/07/18 07:42:22;;;;;;;10.82;3.53;;;;;;;;;;4983713;28;20046;-78
2023/07/18 07:44:48;;;;;;;16.65;4.32;;;;;;;;;;4988668;28;20038;-78
2023/07/18 07:47:14;;;;;;;12.57;2.58;;;;;;;;;;4988194;28;20026;-74
2023/07/18 07:49:41;;;;;;;7.13;2.63;;;;;;;;;;4984599;28;20157;-76
2023/07/18 07:52:07;;;;;;;16.88;3.88;;;;;;;;;;4984380;28;20042;-76
2023/07/18 07:54:33;;;;;;;11.10;2.85;;;;;;;;;;4982276;28;20034;-76
2023/07/18 07:56:59;;;;;;;12.70;3.35;;;;;;;;;;4985417;28;20038;-76
2023/07/18 07:59:25;;;;;;;13.70;3.42;;;;;;;;;;4981093;28;20152;-74
2023/07/18 08:01:51;;;;;;;10.73;2.95;;;;;;;;;;4967552;28;20480;-75
2023/07/18 08:04:17;;;;;;;13.38;3.67;;;;;;;;;;5000279;28;20113;-76
2023/07/18 08:06:43;;;;;;;10.27;3.22;;;;;;;;;;4984176;28;20038;-76
2023/07/18 08:09:09;;;;;;;12.90;3.42;;;;;;;;;;4979700;28;20081;-76
2023/07/18 08:11:35;;;;;;;13.43;3.55;;;;;;;;;;4992788;28;20088;-75
2023/07/18 08:14:02;;;;;;;13.68;3.33;;;;;;;;;;4984640;28;20185;-76
2023/07/18 08:16:28;;;;;;;10.90;3.72;;;;;;;;;;4986930;28;20384;-75
2023/07/18 08:18:54;;;;;;;12.13;2.90;;;;;;;;;;4977061;28;20038;-74
2023/07/18 08:21:20;;;;;;;12.40;2.63;;;;;;;;;;4982390;28;20042;-75
2023/07/18 08:23:46;;;;;;;11.23;3.20;;;;;;;;;;4973687;28;20557;-75
2023/07/18 08:26:13;;;;;;;8.88;2.80;;;;;;;;;;4987462;28;20106;-77
2023/07/18 08:28:39;;;;;;;10.85;2.50;;;;;;;;;;4984762;28;20054;-78
2023/07/18 08:31:05;;;;;;;11.40;2.42;;;;;;;;;;4986963;28;20081;-74
2023/07/18 08:33:31;;;;;;;8.98;2.30;;;;;;;;;;4981898;28;20066;-74
2023/07/18 08:35:57;;;;;;;7.28;2.10;;;;;;;;;;4992552;28;20384;-74
2023/07/18 08:38:23;;;;;;;8.43;2.40;;;;;;;;;;4989661;28;20088;-74
2023/07/18 08:40:49;;;;;;;7.10;2.30;;;;;;;;;;4985508;28;20050;-73
2023/07/18 08:43:18;;;;;;;16.02;3.05;;;;;;;;;;4979730;28;20031;-74
2023/07/18 08:45:44;;;;;;;6.88;2.42;;;;;;;;;;4994270;28;20037;-73
2023/07/18 08:48:12;;;;;;;8.75;2.03;;;;;;;;;;4986309;28;20092;-74
2023/07/18 08:50:39;;;;;;;10.05;2.70;;;;;;;;;;4992427;28;20545;-74
2023/07/18 08:53:05;;;;;;;9.35;2.72;;;;;;;;;;4990837;28;20044;-80
2023/07/18 08:55:32;;;;;;;10.23;2.83;;;;;;;;;;4983742;28;20050;-79
2023/07/18 08:57:58;;;;;;;11.68;2.75;;;;;;;;;;4985270;28;20050;-84
2023/07/18 09:00:25;;;;;;;10.90;2.33;;;;;;;;;;4983031;28;20034;-75
2023/07/18 09:02:51;;;;;;;9.30;2.47;;;;;;;;;;4982714;28;20406;-75
2023/07/18 09:05:29;;;;;;;11.63;2.78;;;;;;;;;;4984613;28;20046;-76
2023/07/18 09:07:59;;;;;;;11.13;2.70;;;;;;;;;;4987304;28;20034;-76
2023/07/18 09:10:25;;;;;;;14.93;2.88;;;;;;;;;;4982636;28;20045;-75
2023/07/18 09:12:52;;;;;;;9.43;2.72;;;;;;;;;;4981390;28;20113;-76
2023/07/18 09:15:19;;;;;;;9.05;3.08;;;;;;;;;;4987240;28;20034;-75
2023/07/18 09:17:49;;;;;;;10.23;2.92;;;;;;;;;;4983998;28;20057;-75
2023/07/18 09:20:18;;;;;;;11.82;2.58;;;;;;;;;;4984235;28;20068;-76
2023/07/18 09:22:44;;;;;;;6.78;2.30;;;;;;;;;;4978995;28;20034;-75
2023/07/18 09:25:14;;;;;;;9.45;2.15;;;;;;;;;;4980035;28;20467;-74
2023/07/18 09:27:40;;;;;;;138.30;104.65;;;;;;;;;;4982806;28;20105;-73
2023/07/18 09:30:06;;;;;;;11.77;3.53;;;;;;;;;;4979604;28;20049;-72
2023/07/18 09:32:32;;;;;;;11.13;2.63;;;;;;;;;;4980925;28;20447;-74
2023/07/18 09:34:59;;;;;;;6.75;2.47;;;;;;;;;;4979538;28;20030;-73
2023/07/18 09:37:26;;;;;;;7.00;2.17;;;;;;;;;;4982129;28;20038;-75
2023/07/18 09:39:52;;;;;;;9.27;2.78;;;;;;;;;;4980363;28;20480;-74
2023/07/18 09:42:18;;;;;;;10.88;2.25;;;;;;;;;;4982723;28;20122;-75
2023/07/18 09:44:49;;;;;;;14.30;2.85;;;;;;;;;;4982328;28;20069;-73
2023/07/18 09:47:15;;;;;;;10.73;2.92;;;;;;;;;;4982357;28;20114;-73
2023/07/18 09:49:43;;;;;;;13.07;2.70;;;;;;;;;;4976827;28;20417;-70
2023/07/18 09:52:09;;;;;;;14.07;2.70;;;;;;;;;;4984757;28;20093;-73
2023/07/18 09:54:35;;;;;;;10.55;2.33;;;;;;;;;;4984001;28;20034;-74
2023/07/18 09:57:08;;;;;;;8.27;2.28;;;;;;;;;;4984025;28;20126;-75
2023/07/18 09:59:37;;;;;;;9.82;1.73;;;;;;;;;;4988966;28;20081;-71
2023/07/18 10:02:06;;;;;;;8.70;2.10;;;;;;;;;;4986058;28;22230;-71
2023/07/18 10:04:35;;;;;;;8.25;2.50;;;;;;;;;;4989772;28;20027;-71
2023/07/18 10:07:02;;;;;;;9.73;2.13;;;;;;;;;;4985333;28;20037;-72
2023/07/18 10:09:28;;;;;;;8.23;2.08;;;;;;;;;;4981921;28;20565;-72
2023/07/18 10:12:03;;;;;;;7.38;1.55;;;;;;;;;;4981829;28;20460;-78
2023/07/18 10:14:30;;;;;;;7.07;2.03;;;;;;;;;;4985090;28;20522;-78
2023/07/18 10:17:04;;;;;;;8.05;1.88;;;;;;;;;;4981659;28;20034;-72
2023/07/18 10:19:45;;;;;;;7.55;1.98;;;;;;;;;;4980890;28;20127;-74
2023/07/18 10:22:11;;;;;;;6.97;1.95;;;;;;;;;;4985437;28;20031;-73
2023/07/18 10:24:37;;;;;;;8.77;2.33;;;;;;;;;;4986301;28;20042;-72
2023/07/18 10:27:10;;;;;;;10.10;2.40;;;;;;;;;;4985589;28;20058;-72
2023/07/18 10:29:39;;;;;;;11.85;2.13;;;;;;;;;;4985856;28;20565;-74
2023/07/18 10:32:09;;;;;;;9.23;1.80;;;;;;;;;;4986155;28;20033;-72
2023/07/18 10:34:39;;;;;;;7.20;1.90;;;;;;;;;;4984533;28;20026;-72
2023/07/18 10:37:07;;;;;;;8.13;2.22;;;;;;;;;;4983666;28;20043;-72
2023/07/18 10:39:39;;;;;;;12.25;3.10;;;;;;;;;;4986378;28;20479;-72
2023/07/18 10:42:09;;;;;;;13.45;2.20;;;;;;;;;;4982640;28;20061;-73
2023/07/18 10:44:38;;;;;;;8.93;1.80;;;;;;;;;;4988989;28;20073;-77
2023/07/18 10:47:14;;;;;;;7.65;1.63;;;;;;;;;;4980790;28;20474;-77
2023/07/18 10:49:40;;;;;;;7.00;1.63;;;;;;;;;;4981431;28;20116;-73
2023/07/18 10:52:06;;;;;;;6.53;1.23;;;;;;;;;;4982599;28;20428;-73
2023/07/18 10:54:32;;;;;;;5.70;1.50;;;;;;;;;;4983821;28;20030;-74
2023/07/18 10:56:59;;;;;;;6.18;1.55;;;;;;;;;;4983596;28;20479;-74
2023/07/18 10:59:25;;;;;;;5.72;1.42;;;;;;;;;;4978673;28;20486;-74
2023/07/18 11:01:51;;;;;;;7.03;1.55;;;;;;;;;;4981517;28;20035;-74
2023/07/18 11:04:17;;;;;;;4.85;1.55;;;;;;;;;;4984527;28;20058;-73
2023/07/18 11:06:50;;;;;;;6.97;1.17;;;;;;;;;;4987240;28;20120;-74
2023/07/18 11:09:16;;;;;;;8.68;1.40;;;;;;;;;;4985541;28;20034;-73
2023/07/18 11:11:42;;;;;;;10.07;1.80;;;;;;;;;;4987964;28;20058;-73
2023/07/18 11:14:08;;;;;;;5.38;1.13;;;;;;;;;;4984663;28;20053;-73
2023/07/18 11:16:36;;;;;;;6.78;1.70;;;;;;;;;;4981638;28;20047;-76
2023/07/18 11:19:02;;;;;;;10.57;2.05;;;;;;;;;;4980098;28;20400;-74
2023/07/18 11:21:29;;;;;;;8.55;1.58;;;;;;;;;;4982488;28;20057;-74
2023/07/18 11:23:55;;;;;;;7.78;2.08;;;;;;;;;;4995468;28;20052;-72
2023/07/18 11:26:21;;;;;;;5.95;1.52;;;;;;;;;;4983254;28;20026;-72
2023/07/18 11:28:51;;;;;;;4.97;1.33;;;;;;;;;;4979862;28;20053;-74
2023/07/18 11:31:20;;;;;;;9.88;1.70;;;;;;;;;;4985697;28;20403;-74
2023/07/18 11:33:53;;;;;;;6.95;2.20;;;;;;;;;;4984507;28;20467;-72
2023/07/18 11:36:19;;;;;;;4.72;1.83;;;;;;;;;;4980823;28;20795;-75
2023/07/18 11:38:49;;;;;;;11.18;2.53;;;;;;;;;;4982064;28;20018;-75
2023/07/18 11:41:31;;;;;;;10.82;2.70;;;;;;;;;;4981349;28;20042;-74
2023/07/18 11:43:57;;;;;;;9.95;1.80;;;;;;;;;;4986883;28;20171;-75
2023/07/18 11:46:42;;;;;;;6.22;1.50;;;;;;;;;;4982152;28;20476;-74
2023/07/18 11:49:09;;;;;;;10.00;1.52;;;;;;;;;;4984014;28;20038;-73
2023/07/18 11:51:36;;;;;;;6.45;1.33;;;;;;;;;;4985473;28;20467;-73
2023/07/18 11:54:03;;;;;;;8.85;2.60;;;;;;;;;;4990751;28;20057;-73
2023/07/18 11:56:34;;;;;;;6.40;2.00;;;;;;;;;;4993670;28;20022;-73
2023/07/18 11:59:00;;;;;;;5.33;1.63;;;;;;;;;;4991125;28;20494;-73
2023/07/18 12:01:26;;;;;;;8.88;2.20;;;;;;;;;;5000482;28;20042;-73
2023/07/18 12:03:53;;;;;;;9.25;1.50;;;;;;;;;;5007540;28;20026;-74
2023/07/18 12:06:19;;;;;;;10.68;1.92;;;;;;;;;;4989850;28;20022;-73
2023/07/18 12:08:45;;;;;;;8.98;1.73;;;;;;;;;;4992699;28;20084;-73
2023/07/18 12:11:12;;;;;;;8.02;2.05;;;;;;;;;;4986191;28;20038;-73
2023/07/18 12:13:38;;;;;;;6.30;1.80;;;;;;;;;;4992355;28;20042;-73
2023/07/18 12:16:04;;;;;;;10.32;2.08;;;;;;;;;;4991371;28;20029;-73
2023/07/18 12:18:30;;;;;;;8.18;1.55;;;;;;;;;;5004189;28;20019;-73
2023/07/18 12:20:56;;;;;;;9.07;1.98;;;;;;;;;;4992171;28;20041;-73
2023/07/18 12:23:23;;;;;;;10.90;2.33;;;;;;;;;;4985161;28;20034;-73
2023/07/18 12:25:49;;;;;;;8.82;1.70;;;;;;;;;;4988024;28;20082;-72
2023/07/18 12:28:15;;;;;;;9.57;1.83;;;;;;;;;;4993274;28;20026;-73
2023/07/18 12:30:41;;;;;;;5.78;1.55;;;;;;;;;;4984002;28;20030;-73
2023/07/18 12:33:08;;;;;;;9.95;1.95;;;;;;;;;;4989563;28;20058;-73
2023/07/18 12:35:34;;;;;;;14.13;1.90;;;;;;;;;;4984996;28;20031;-72
2023/07/18 12:38:01;;;;;;;6.22;1.75;;;;;;;;;;4990581;28;20121;-72
2023/07/18 12:40:27;;;;;;;8.80;2.28;;;;;;;;;;4974184;28;20031;-72
2023/07/18 12:42:53;;;;;;;9.18;1.80;;;;;;;;;;4982967;28;20038;-72
2023/07/18 12:45:19;;;;;;;7.93;1.63;;;;;;;;;;4987495;28;20038;-73
2023/07/18 12:47:45;;;;;;;8.75;2.25;;;;;;;;;;4997969;28;20026;-73
2023/07/18 12:50:11;;;;;;;7.43;1.63;;;;;;;;;;4985463;28;20133;-73
2023/07/18 12:52:38;;;;;;;17.17;4.72;;;;;;;;;;4985124;28;20026;-73
2023/07/18 12:55:05;;;;;;;9.48;2.03;;;;;;;;;;4985564;28;20030;-73
2023/07/18 12:57:31;;;;;;;10.90;2.10;;;;;;;;;;4971257;28;20031;-73
2023/07/18 12:59:57;;;;;;;6.60;1.67;;;;;;;;;;4985446;28;20041;-73
2023/07/18 13:02:23;;;;;;;4.90;1.45;;;;;;;;;;4988634;28;20376;-73
2023/07/18 13:04:49;;;;;;;10.55;1.90;;;;;;;;;;4982107;28;20027;-73
2023/07/18 13:07:16;;;;;;;8.10;1.60;;;;;;;;;;4971575;28;20483;-73
2023/07/18 13:09:42;;;;;;;13.13;2.00;;;;;;;;;;4983865;28;20026;-73
2023/07/18 13:12:08;;;;;;;8.15;2.00;;;;;;;;;;4988603;28;20038;-73
2023/07/18 13:14:35;;;;;;;8.52;1.88;;;;;;;;;;4982328;28;20485;-73
2023/07/18 13:17:01;;;;;;;3.97;1.27;;;;;;;;;;5007631;28;20624;-73
2023/07/18 13:19:27;;;;;;;5.43;1.42;;;;;;;;;;4988087;28;20117;-73
2023/07/18 13:21:55;;;;;;;5.40;1.30;;;;;;;;;;4987499;28;20422;-72
2023/07/18 13:24:21;;;;;;;3.63;0.90;;;;;;;;;;4991621;28;20034;-73
2023/07/18 13:26:48;;;;;;;5.32;1.23;;;;;;;;;;4972333;28;20046;-73
2023/07/18 13:29:14;;;;;;;7.18;1.25;;;;;;;;;;4978279;28;20031;-73
2023/07/18 13:31:40;;;;;;;3.65;1.42;;;;;;;;;;4987012;28;20092;-73
2023/07/18 13:34:09;;;;;;;6.50;1.55;;;;;;;;;;4988083;28;20133;-73
2023/07/18 13:36:35;;;;;;;6.40;1.25;;;;;;;;;;4988816;28;20034;-73
2023/07/18 13:39:01;;;;;;;4.60;1.48;;;;;;;;;;4991933;28;20034;-73
2023/07/18 13:41:27;;;;;;;7.93;1.45;;;;;;;;;;4990804;28;20642;-73
2023/07/18 13:43:53;;;;;;;6.85;1.50;;;;;;;;;;4987779;28;20137;-73
2023/07/18 13:46:19;;;;;;;12.90;2.03;;;;;;;;;;4995716;28;20476;-72
2023/07/18 13:48:45;;;;;;;8.32;1.10;;;;;;;;;;4971921;28;20041;-73
2023/07/18 13:51:11;;;;;;;8.70;1.63;;;;;;;;;;4982942;28;20054;-73
2023/07/18 13:53:37;;;;;;;4.63;1.20;;;;;;;;;;4986756;28;20030;-73
2023/07/18 13:56:03;;;;;;;4.10;1.20;;;;;;;;;;4987013;28;20034;-73
2023/07/18 13:58:30;;;;;;;21.00;2.42;;;;;;;;;;4985479;28;20478;-73
2023/07/18 14:00:57;;;;;;;4.75;1.17;;;;;;;;;;4997916;28;20029;-73
2023/07/18 14:03:23;;;;;;;5.47;1.73;;;;;;;;;;5006235;28;20037;-73
2023/07/18 14:05:49;;;;;;;5.95;1.27;;;;;;;;;;4982894;28;20380;-73
2023/07/18 14:08:15;;;;;;;4.20;1.10;;;;;;;;;;4991836;28;20492;-73
2023/07/18 14:10:41;;;;;;;3.75;1.40;;;;;;;;;;4988295;28;20562;-73
2023/07/18 14:13:07;;;;;;;3.67;1.33;;;;;;;;;;4990731;28;20039;-74
2023/07/18 14:15:33;;;;;;;5.65;1.70;;;;;;;;;;4988434;28;20046;-73
2023/07/18 14:17:59;;;;;;;5.05;1.77;;;;;;;;;;5011506;28;20049;-73
2023/07/18 14:20:25;;;;;;;4.32;1.20;;;;;;;;;;4989912;28;20039;-73
2023/07/18 14:22:51;;;;;;;4.28;0.90;;;;;;;;;;4983912;28;20026;-73
2023/07/18 14:25:17;;;;;;;3.90;1.13;;;;;;;;;;4991103;28;20739;-73
2023/07/18 14:27:43;;;;;;;3.35;1.10;;;;;;;;;;4992866;28;20169;-73
2023/07/18 14:30:09;;;;;;;5.15;1.48;;;;;;;;;;4993974;28;20042;-73